createdAt,value
2018-03-29T00:02:20.406Z,4.32
2018-03-29T00:04:48.962Z,4.70
2018-03-29T00:07:18.262Z,4.90
2018-03-29T00:09:46.702Z,4.20
2018-03-29T00:12:15.326Z,4.00
2018-03-29T00:14:43.905Z,4.32
2018-03-29T00:17:12.314Z,4.12
2018-03-29T00:19:40.687Z,4.57
2018-03-29T00:22:09.068Z,4.15
2018-03-29T00:24:37.726Z,4.43
2018-03-29T00:27:06.111Z,4.55
2018-03-29T00:29:35.298Z,4.95
2018-03-29T00:32:04.602Z,5.03
2018-03-29T00:34:32.987Z,5.05
2018-03-29T00:37:01.417Z,5.30
2018-03-29T00:39:30.046Z,5.80
2018-03-29T00:41:59.162Z,5.55
2018-03-29T00:44:27.721Z,4.85
2018-03-29T00:46:56.173Z,5.37
2018-03-29T00:49:24.553Z,4.70
2018-03-29T00:51:53.051Z,4.68
2018-03-29T00:54:21.471Z,4.57
2018-03-29T00:56:49.842Z,5.68
2018-03-29T00:59:18.405Z,5.30
2018-03-29T01:01:47.587Z,5.18
2018-03-29T01:04:15.970Z,5.50
2018-03-29T01:06:44.562Z,5.43
2018-03-29T01:09:12.986Z,4.72
2018-03-29T01:11:41.377Z,4.78
2018-03-29T01:14:09.821Z,4.62
2018-03-29T01:16:38.209Z,4.30
2018-03-29T01:19:06.630Z,3.62
2018-03-29T01:21:35.459Z,3.90
2018-03-29T01:24:04.026Z,4.03
2018-03-29T01:26:32.609Z,4.72
2018-03-29T01:29:01.791Z,3.90
2018-03-29T01:31:31.028Z,4.30
2018-03-29T01:33:59.593Z,3.80
2018-03-29T01:36:27.996Z,4.10
2018-03-29T01:38:56.470Z,3.87
2018-03-29T01:41:24.879Z,3.85
2018-03-29T01:43:53.255Z,3.85
2018-03-29T01:46:22.098Z,3.80
2018-03-29T01:48:51.304Z,4.15
2018-03-29T01:51:20.446Z,3.10
2018-03-29T01:53:48.972Z,3.47
2018-03-29T01:56:17.417Z,2.92
2018-03-29T01:58:45.809Z,3.20
2018-03-29T02:01:14.962Z,2.25
2018-03-29T02:03:43.608Z,2.70
2018-03-29T02:06:12.197Z,3.05
2018-03-29T02:08:40.878Z,2.55
2018-03-29T02:11:10.176Z,2.40
2018-03-29T02:13:38.644Z,2.97
2018-03-29T02:16:07.139Z,2.70
2018-03-29T02:18:35.725Z,2.90
2018-03-29T02:21:04.214Z,2.85
2018-03-29T02:23:32.785Z,2.67
2018-03-29T02:26:01.209Z,2.40
2018-03-29T02:28:29.747Z,2.87
2018-03-29T02:30:58.957Z,2.42
2018-03-29T02:33:27.348Z,2.70
2018-03-29T02:35:55.908Z,2.50
2018-03-29T02:38:25.209Z,2.72
2018-03-29T02:40:54.506Z,3.17
2018-03-29T02:43:24.112Z,3.33
2018-03-29T02:45:53.247Z,3.10
2018-03-29T02:48:21.621Z,3.12
2018-03-29T02:50:50.048Z,3.28
2018-03-29T02:53:18.653Z,3.70
2018-03-29T02:55:47.091Z,4.18
2018-03-29T02:58:16.020Z,4.12
2018-03-29T03:00:45.235Z,4.32
2018-03-29T03:03:13.637Z,4.20
2018-03-29T03:05:42.280Z,4.35
2018-03-29T03:08:11.415Z,4.78
2018-03-29T03:10:39.868Z,5.10
2018-03-29T03:13:08.290Z,5.05
2018-03-29T03:15:36.662Z,4.40
2018-03-29T03:18:05.104Z,5.47
2018-03-29T03:20:33.482Z,4.93
2018-03-29T03:23:01.867Z,4.30
2018-03-29T03:25:30.345Z,4.05
2018-03-29T03:27:58.820Z,3.85
2018-03-29T03:30:27.201Z,4.28
2018-03-29T03:32:55.602Z,3.65
2018-03-29T03:35:23.967Z,4.00
2018-03-29T03:37:52.529Z,3.53
2018-03-29T03:40:21.829Z,3.87
2018-03-29T03:42:50.981Z,4.00
2018-03-29T03:45:19.508Z,4.05
2018-03-29T03:47:48.808Z,5.07
2018-03-29T03:50:17.570Z,3.62
2018-03-29T03:52:45.974Z,3.47
2018-03-29T03:55:14.472Z,3.83
2018-03-29T03:57:43.036Z,3.97
2018-03-29T04:00:11.638Z,3.83
2018-03-29T04:02:40.132Z,4.07
2018-03-29T04:05:08.681Z,3.47
2018-03-29T04:07:37.981Z,3.55
2018-03-29T04:10:07.193Z,4.00
2018-03-29T04:12:35.616Z,4.32
2018-03-29T04:15:04.249Z,3.83
2018-03-29T04:17:33.386Z,4.22
2018-03-29T04:20:01.798Z,4.37
2018-03-29T04:22:31.042Z,4.25
2018-03-29T04:24:59.521Z,4.55
2018-03-29T04:27:27.886Z,5.00
2018-03-29T04:29:56.279Z,5.00
2018-03-29T04:32:24.944Z,4.07
2018-03-29T04:34:53.521Z,4.53
2018-03-29T04:37:22.110Z,4.80
2018-03-29T04:39:50.541Z,5.22
2018-03-29T04:42:18.924Z,5.32
2018-03-29T04:44:47.326Z,4.75
2018-03-29T04:47:15.731Z,5.37
2018-03-29T04:49:44.211Z,5.43
2018-03-29T04:52:13.339Z,5.70
2018-03-29T04:54:41.882Z,5.22
2018-03-29T04:57:11.009Z,6.40
2018-03-29T04:59:39.453Z,6.95
2018-03-29T05:02:08.629Z,6.20
2018-03-29T05:04:37.517Z,6.15
2018-03-29T05:07:06.686Z,6.35
2018-03-29T05:09:35.228Z,6.35
2018-03-29T05:12:04.444Z,6.65
2018-03-29T05:14:32.811Z,6.55
2018-03-29T05:17:01.382Z,5.78
2018-03-29T05:19:29.884Z,6.50
2018-03-29T05:21:58.275Z,5.85
2018-03-29T05:24:26.647Z,6.00
2018-03-29T05:26:55.120Z,6.97
2018-03-29T05:29:23.688Z,6.22
2018-03-29T05:31:52.877Z,5.72
2018-03-29T05:34:21.468Z,5.68
2018-03-29T05:36:50.663Z,5.20
2018-03-29T05:39:20.288Z,5.25
2018-03-29T05:41:48.852Z,5.82
2018-03-29T05:44:18.150Z,5.50
2018-03-29T05:46:46.581Z,5.97
2018-03-29T05:49:14.957Z,6.07
2018-03-29T05:51:43.347Z,5.85
2018-03-29T05:54:11.972Z,5.22
2018-03-29T05:56:40.552Z,6.90
2018-03-29T05:59:09.141Z,6.93
2018-03-29T06:01:38.251Z,6.68
2018-03-29T06:04:06.636Z,6.30
2018-03-29T06:06:35.047Z,7.07
2018-03-29T06:09:03.781Z,7.00
2018-03-29T06:11:32.465Z,6.68
2018-03-29T06:14:10.470Z,7.28
2018-03-29T06:16:44.577Z,7.40
2018-03-29T06:19:13.878Z,7.72
2018-03-29T06:21:42.568Z,8.10
2018-03-29T06:24:11.888Z,8.63
2018-03-29T06:26:40.377Z,7.37
2018-03-29T06:29:08.933Z,8.52
2018-03-29T06:31:37.432Z,9.57
2018-03-29T06:34:05.992Z,9.73
2018-03-29T06:36:34.570Z,9.80
2018-03-29T06:39:08.797Z,9.93
2018-03-29T06:41:38.094Z,10.27
2018-03-29T06:44:07.492Z,9.68
2018-03-29T06:46:36.696Z,9.90
2018-03-29T06:49:05.903Z,10.43
2018-03-29T06:51:34.474Z,10.07
2018-03-29T06:54:03.053Z,11.23
2018-03-29T06:56:32.351Z,11.43
2018-03-29T06:59:01.964Z,12.07
2018-03-29T07:01:30.546Z,11.18
2018-03-29T07:03:59.847Z,12.32
2018-03-29T07:06:28.427Z,11.00
2018-03-29T07:08:57.833Z,11.35
2018-03-29T07:11:26.284Z,11.98
2018-03-29T07:13:55.306Z,11.35
2018-03-29T07:16:23.887Z,10.27
2018-03-29T07:18:52.289Z,12.20
2018-03-29T07:21:20.851Z,11.63
2018-03-29T07:23:49.240Z,10.75
2018-03-29T07:26:18.117Z,12.15
2018-03-29T07:28:46.701Z,12.50
2018-03-29T07:31:15.281Z,11.27
2018-03-29T07:33:43.864Z,11.73
2018-03-29T07:36:13.063Z,11.48
2018-03-29T07:38:42.271Z,13.68
2018-03-29T07:41:10.846Z,12.00
2018-03-29T07:43:39.243Z,11.93
2018-03-29T07:46:07.671Z,12.88
2018-03-29T07:48:36.820Z,12.88
2018-03-29T07:51:05.379Z,13.07
2018-03-29T07:53:34.269Z,13.20
2018-03-29T07:56:03.415Z,12.15
2018-03-29T07:58:31.842Z,13.62
2018-03-29T08:01:01.147Z,12.52
2018-03-29T08:03:29.535Z,11.93
2018-03-29T08:05:58.030Z,10.68
2018-03-29T08:08:26.587Z,11.43
2018-03-29T08:10:55.886Z,13.50
2018-03-29T08:13:25.090Z,12.05
2018-03-29T08:15:53.668Z,11.10
2018-03-29T08:18:22.967Z,11.98
2018-03-29T08:20:51.560Z,11.80
2018-03-29T08:23:20.137Z,10.50
2018-03-29T08:25:48.521Z,12.18
2018-03-29T08:28:18.768Z,10.52
2018-03-29T08:30:47.149Z,11.95
2018-03-29T08:33:15.566Z,12.20
2018-03-29T08:35:45.204Z,13.18
2018-03-29T08:38:13.786Z,12.88
2018-03-29T08:40:42.248Z,14.13
2018-03-29T08:43:11.423Z,14.45
2018-03-29T08:45:39.790Z,13.43
2018-03-29T08:48:08.334Z,14.80
2018-03-29T08:50:36.723Z,14.13
2018-03-29T08:53:05.286Z,15.23
2018-03-29T08:55:34.031Z,15.65
2018-03-29T08:58:02.480Z,15.38
2018-03-29T09:00:31.034Z,16.73
2018-03-29T09:02:59.484Z,16.77
2018-03-29T09:05:27.868Z,16.98
2018-03-29T09:07:57.108Z,18.67
2018-03-29T09:10:25.776Z,17.50
2018-03-29T09:12:54.177Z,17.20
2018-03-29T09:15:22.652Z,18.27
2018-03-29T09:17:51.214Z,19.30
2018-03-29T09:20:19.796Z,18.05
2018-03-29T09:22:48.380Z,18.25
2018-03-29T09:25:17.527Z,18.90
2018-03-29T09:27:46.467Z,17.55
2018-03-29T09:30:14.867Z,16.55
2018-03-29T09:32:43.428Z,16.55
2018-03-29T09:35:12.016Z,17.17
2018-03-29T09:37:40.452Z,15.95
2018-03-29T09:40:08.836Z,17.52
2018-03-29T09:42:38.888Z,18.58
2018-03-29T09:45:08.078Z,16.87
2018-03-29T09:47:37.383Z,19.20
2018-03-29T09:50:06.684Z,19.23
2018-03-29T09:52:35.104Z,19.80
2018-03-29T09:55:03.580Z,22.20
2018-03-29T09:57:31.964Z,21.02
2018-03-29T10:00:00.347Z,22.05
2018-03-29T10:02:31.508Z,20.02
2018-03-29T10:05:05.097Z,19.48
2018-03-29T10:07:34.456Z,20.23
2018-03-29T10:10:03.029Z,20.83
2018-03-29T10:12:31.617Z,20.90
2018-03-29T10:15:00.195Z,20.52
2018-03-29T10:17:28.628Z,19.20
2018-03-29T10:19:57.260Z,18.00
2018-03-29T10:22:25.754Z,18.45
2018-03-29T10:24:54.139Z,17.60
2018-03-29T10:27:22.700Z,18.60
2018-03-29T10:29:51.096Z,18.92
2018-03-29T10:32:19.487Z,18.73
2018-03-29T10:34:47.912Z,18.48
2018-03-29T10:37:16.526Z,18.95
2018-03-29T10:39:45.211Z,18.45
2018-03-29T10:42:13.795Z,18.07
2018-03-29T10:44:42.700Z,17.77
2018-03-29T10:47:11.088Z,18.42
2018-03-29T10:49:39.490Z,18.67
2018-03-29T10:52:08.034Z,19.35
2018-03-29T10:54:36.603Z,17.05
2018-03-29T10:57:05.186Z,17.27
2018-03-29T10:59:34.588Z,17.23
2018-03-29T11:02:03.902Z,17.27
2018-03-29T11:04:32.476Z,17.58
2018-03-29T11:07:01.159Z,17.30
2018-03-29T11:09:29.549Z,15.83
2018-03-29T11:11:58.127Z,14.53
2018-03-29T11:14:26.807Z,14.53
2018-03-29T11:16:55.384Z,14.03
2018-03-29T11:19:24.594Z,13.37
2018-03-29T11:21:53.169Z,14.53
2018-03-29T11:24:21.756Z,14.37
2018-03-29T11:26:50.334Z,12.40
2018-03-29T11:29:19.638Z,13.47
2018-03-29T11:31:48.802Z,13.13
2018-03-29T11:34:17.828Z,13.83
2018-03-29T11:36:46.411Z,13.97
2018-03-29T11:39:14.990Z,13.27
2018-03-29T11:41:43.460Z,14.33
2018-03-29T11:44:12.775Z,13.00
2018-03-29T11:46:41.356Z,12.90
2018-03-29T11:49:09.854Z,12.33
2018-03-29T11:51:38.264Z,13.60
2018-03-29T11:54:06.656Z,12.63
2018-03-29T11:56:36.753Z,12.77
2018-03-29T11:59:05.190Z,12.80
2018-03-29T12:01:34.600Z,11.67
2018-03-29T12:04:03.179Z,12.47
2018-03-29T12:06:31.571Z,12.23
2018-03-29T12:09:00.250Z,10.43
2018-03-29T12:11:28.822Z,11.13
2018-03-29T12:13:58.028Z,8.07
2018-03-29T12:16:26.608Z,8.43
2018-03-29T12:18:55.105Z,8.53
2018-03-29T12:21:23.664Z,9.37
2018-03-29T12:23:52.055Z,9.63
2018-03-29T12:26:21.239Z,11.60
2018-03-29T12:28:49.826Z,10.20
2018-03-29T12:31:18.243Z,10.83
2018-03-29T12:33:46.624Z,18.73
2018-03-29T12:36:15.445Z,12.18
2018-03-29T12:38:44.872Z,12.63
2018-03-29T12:41:13.286Z,12.82
2018-03-29T12:43:41.740Z,13.13
2018-03-29T12:46:10.624Z,12.85
2018-03-29T12:48:39.024Z,13.88
2018-03-29T12:51:07.462Z,14.87
2018-03-29T12:53:35.883Z,14.23
2018-03-29T12:56:04.356Z,15.67
2018-03-29T12:58:33.642Z,15.60
2018-03-29T13:01:02.964Z,15.40
2018-03-29T13:03:31.405Z,16.13
2018-03-29T13:06:00.777Z,15.27
2018-03-29T13:08:29.180Z,16.37
2018-03-29T13:10:57.787Z,16.27
2018-03-29T13:13:26.177Z,15.33
2018-03-29T13:15:54.561Z,16.80
2018-03-29T13:18:23.541Z,16.80
2018-03-29T13:20:51.935Z,16.07
2018-03-29T13:23:20.506Z,14.57
2018-03-29T13:25:48.990Z,14.93
2018-03-29T13:28:17.561Z,15.67
2018-03-29T13:30:46.001Z,14.97
2018-03-29T13:33:14.544Z,14.53
2018-03-29T13:35:42.947Z,9.83
2018-03-29T13:38:11.889Z,7.73
2018-03-29T13:40:40.685Z,8.30
2018-03-29T13:43:09.184Z,8.53
2018-03-29T13:45:37.744Z,8.33
2018-03-29T13:48:06.329Z,7.37
2018-03-29T13:50:34.737Z,7.67
2018-03-29T13:53:03.290Z,6.80
2018-03-29T13:55:32.483Z,6.57
2018-03-29T13:58:01.069Z,7.20
2018-03-29T14:00:29.553Z,6.87
2018-03-29T14:02:58.768Z,5.87
2018-03-29T14:05:27.332Z,6.13
2018-03-29T14:07:56.140Z,5.70
2018-03-29T14:10:24.704Z,6.00
2018-03-29T14:12:53.285Z,6.10
2018-03-29T14:15:22.608Z,6.60
2018-03-29T14:17:51.184Z,7.00
2018-03-29T14:20:19.587Z,8.00
2018-03-29T14:22:48.131Z,8.17
2018-03-29T14:25:16.511Z,8.17
2018-03-29T14:27:46.222Z,8.87
2018-03-29T14:30:14.801Z,9.57
2018-03-29T14:32:43.299Z,10.17
2018-03-29T14:35:11.737Z,8.90
2018-03-29T14:37:41.064Z,7.30
2018-03-29T14:40:09.464Z,7.00
2018-03-29T14:42:38.019Z,6.97
2018-03-29T14:45:06.480Z,6.30
2018-03-29T14:47:35.804Z,5.50
2018-03-29T14:50:05.515Z,5.90
2018-03-29T14:52:34.811Z,6.33
2018-03-29T14:55:03.240Z,6.10
2018-03-29T14:57:31.671Z,6.03
2018-03-29T15:00:00.150Z,6.30
2018-03-29T15:02:28.734Z,7.45
2018-03-29T15:04:57.116Z,8.25
2018-03-29T15:07:25.699Z,8.23
2018-03-29T15:09:54.119Z,8.38
2018-03-29T15:12:22.494Z,8.85
2018-03-29T15:14:51.077Z,10.88
2018-03-29T15:17:19.522Z,14.68
2018-03-29T15:19:47.940Z,11.93
2018-03-29T15:22:16.478Z,9.85
2018-03-29T15:24:45.667Z,9.95
2018-03-29T15:27:15.183Z,11.02
2018-03-29T15:29:43.580Z,10.52
2018-03-29T15:32:12.142Z,10.13
2018-03-29T15:34:40.622Z,9.90
2018-03-29T15:37:09.107Z,11.63
2018-03-29T15:39:37.686Z,11.47
2018-03-29T15:42:06.986Z,11.77
2018-03-29T15:44:35.599Z,11.50
2018-03-29T15:47:04.255Z,11.93
2018-03-29T15:49:33.559Z,11.90
2018-03-29T15:52:02.050Z,10.88
2018-03-29T15:54:30.618Z,11.50
2018-03-29T15:56:59.308Z,11.25
2018-03-29T15:59:27.691Z,11.20
2018-03-29T16:01:56.265Z,11.40
2018-03-29T16:04:24.953Z,10.75
2018-03-29T16:06:53.343Z,11.60
2018-03-29T16:09:23.654Z,11.48
2018-03-29T16:11:52.129Z,10.35
2018-03-29T16:14:20.558Z,9.30
2018-03-29T16:16:48.940Z,9.45
2018-03-29T16:19:17.320Z,9.32
2018-03-29T16:21:45.745Z,9.40
2018-03-29T16:24:15.049Z,8.93
2018-03-29T16:26:43.461Z,8.18
2018-03-29T16:29:12.015Z,10.88
2018-03-29T16:31:40.434Z,11.48
2018-03-29T16:34:08.892Z,9.88
2018-03-29T16:36:37.452Z,9.70
2018-03-29T16:39:06.676Z,10.52
2018-03-29T16:41:35.944Z,9.43
2018-03-29T16:44:10.168Z,10.18
2018-03-29T16:46:43.567Z,10.53
2018-03-29T16:49:12.005Z,10.18
2018-03-29T16:51:40.475Z,10.90
2018-03-29T16:54:09.018Z,10.45
2018-03-29T16:56:37.494Z,9.57
2018-03-29T16:59:05.909Z,8.65
2018-03-29T17:01:34.362Z,9.57
2018-03-29T17:04:02.833Z,9.98
2018-03-29T17:06:31.410Z,8.93
2018-03-29T17:08:59.989Z,9.73
2018-03-29T17:11:29.133Z,10.70
2018-03-29T17:13:57.772Z,9.95
2018-03-29T17:16:26.217Z,10.70
2018-03-29T17:18:54.731Z,9.40
2018-03-29T17:21:24.031Z,10.05
2018-03-29T17:23:53.209Z,10.80
2018-03-29T17:26:22.379Z,9.63
2018-03-29T17:28:50.752Z,9.30
2018-03-29T17:31:19.387Z,10.05
2018-03-29T17:33:48.789Z,10.40
2018-03-29T17:36:17.291Z,10.50
2018-03-29T17:38:45.854Z,11.27
2018-03-29T17:41:15.073Z,13.18
2018-03-29T17:43:43.472Z,11.68
2018-03-29T17:46:12.008Z,10.60
2018-03-29T17:48:40.903Z,10.43
2018-03-29T17:51:10.118Z,14.27
2018-03-29T17:53:38.499Z,13.43
2018-03-29T17:56:07.062Z,11.95
2018-03-29T17:58:35.439Z,9.52
2018-03-29T18:01:04.654Z,10.98
2018-03-29T18:03:33.135Z,11.75
2018-03-29T18:06:01.699Z,13.93
2018-03-29T18:08:31.009Z,18.75
2018-03-29T18:10:59.416Z,19.80
2018-03-29T18:13:27.801Z,17.65
2018-03-29T18:15:56.261Z,17.02
2018-03-29T18:18:25.091Z,15.90
2018-03-29T18:20:54.303Z,16.05
2018-03-29T18:23:22.754Z,18.50
2018-03-29T18:25:51.937Z,19.70
2018-03-29T18:28:20.400Z,20.40
2018-03-29T18:30:48.836Z,17.90
2018-03-29T18:33:17.208Z,21.87
2018-03-29T18:35:45.648Z,22.55
2018-03-29T18:38:14.068Z,21.17
2018-03-29T18:40:42.769Z,20.27
2018-03-29T18:43:11.272Z,20.92
2018-03-29T18:45:40.439Z,24.50
2018-03-29T18:48:08.968Z,31.77
2018-03-29T18:50:37.551Z,30.62
2018-03-29T18:53:06.368Z,37.03
2018-03-29T18:55:34.813Z,37.47
2018-03-29T18:58:03.218Z,32.67
2018-03-29T19:00:31.960Z,32.17
2018-03-29T19:03:01.471Z,32.70
2018-03-29T19:05:30.048Z,29.45
2018-03-29T19:07:58.633Z,34.10
2018-03-29T19:10:27.109Z,25.48
2018-03-29T19:12:56.315Z,28.30
2018-03-29T19:15:25.454Z,30.02
2018-03-29T19:17:53.896Z,26.65
2018-03-29T19:20:22.347Z,32.50
2018-03-29T19:22:51.600Z,30.88
2018-03-29T19:25:20.458Z,27.67
2018-03-29T19:27:51.343Z,30.90
2018-03-29T19:30:20.000Z,31.90
2018-03-29T19:32:48.397Z,19.62
2018-03-29T19:35:16.817Z,21.08
2018-03-29T19:37:45.247Z,18.25
2018-03-29T19:40:13.797Z,17.95
2018-03-29T19:42:42.174Z,17.58
2018-03-29T19:45:11.580Z,17.80
2018-03-29T19:47:40.164Z,17.17
2018-03-29T19:50:09.344Z,17.90
2018-03-29T19:52:38.555Z,15.75
2018-03-29T19:55:07.959Z,19.35
2018-03-29T19:57:37.219Z,18.05
2018-03-29T20:00:05.594Z,21.50
2018-03-29T20:02:34.851Z,21.33
2018-03-29T20:05:03.416Z,23.08
2018-03-29T20:07:32.000Z,23.27
2018-03-29T20:10:00.583Z,24.08
2018-03-29T20:12:28.978Z,24.77
2018-03-29T20:14:57.424Z,23.55
2018-03-29T20:17:27.042Z,20.73
2018-03-29T20:19:56.212Z,18.90
2018-03-29T20:22:26.128Z,18.67
2018-03-29T20:24:55.356Z,21.52
2018-03-29T20:27:24.764Z,18.83
2018-03-29T20:29:53.909Z,18.55
2018-03-29T20:32:22.458Z,19.35
2018-03-29T20:34:51.023Z,19.37
2018-03-29T20:37:20.215Z,19.75
2018-03-29T20:39:48.802Z,18.85
2018-03-29T20:42:18.016Z,21.77
2018-03-29T20:44:46.582Z,22.17
2018-03-29T20:47:15.743Z,30.55
2018-03-29T20:49:44.190Z,32.17
2018-03-29T20:52:12.746Z,28.08
2018-03-29T20:54:41.245Z,26.70
2018-03-29T20:57:09.724Z,24.02
2018-03-29T20:59:38.115Z,23.92
2018-03-29T21:02:06.515Z,24.75
2018-03-29T21:04:35.148Z,22.33
2018-03-29T21:07:03.660Z,23.30
2018-03-29T21:09:32.047Z,22.60
2018-03-29T21:12:00.692Z,24.10
2018-03-29T21:14:29.903Z,23.40
2018-03-29T21:16:58.292Z,24.87
2018-03-29T21:19:26.724Z,22.77
2018-03-29T21:21:55.149Z,23.48
2018-03-29T21:24:23.545Z,23.67
2018-03-29T21:26:52.006Z,24.42
2018-03-29T21:29:20.406Z,22.73
2018-03-29T21:31:49.022Z,22.50
2018-03-29T21:34:17.424Z,22.10
2018-03-29T21:36:46.422Z,21.67
2018-03-29T21:39:15.919Z,21.25
2018-03-29T21:41:45.433Z,22.37
2018-03-29T21:44:14.316Z,23.60
2018-03-29T21:46:42.815Z,20.62
2018-03-29T21:49:11.381Z,23.90
2018-03-29T21:51:40.086Z,24.67
2018-03-29T21:54:08.849Z,27.48
2018-03-29T21:56:37.843Z,25.58
2018-03-29T21:59:06.430Z,25.67
2018-03-29T22:01:35.598Z,23.23
2018-03-29T22:04:05.299Z,27.02
2018-03-29T22:06:33.919Z,28.85
2018-03-29T22:09:04.343Z,28.17
2018-03-29T22:11:33.343Z,26.52
2018-03-29T22:14:03.001Z,25.90
2018-03-29T22:16:31.634Z,24.33
2018-03-29T22:19:00.626Z,25.25
2018-03-29T22:21:29.408Z,27.52
2018-03-29T22:23:57.912Z,26.15
2018-03-29T22:26:26.598Z,29.50
2018-03-29T22:28:55.165Z,29.45
2018-03-29T22:31:23.747Z,29.67
2018-03-29T22:33:52.546Z,26.60
2018-03-29T22:36:21.033Z,21.05
2018-03-29T22:38:49.594Z,21.70
2018-03-29T22:41:18.748Z,22.58
2018-03-29T22:43:47.380Z,21.02
2018-03-29T22:46:15.833Z,22.02
2018-03-29T22:48:45.052Z,19.73
2018-03-29T22:51:13.547Z,24.02
2018-03-29T22:53:42.024Z,23.33
2018-03-29T22:56:10.407Z,23.83
2018-03-29T22:58:38.782Z,20.65
2018-03-29T23:01:07.280Z,21.73
2018-03-29T23:03:35.687Z,21.98
2018-03-29T23:06:04.076Z,21.70
2018-03-29T23:08:32.527Z,24.30
2018-03-29T23:11:00.903Z,22.67
2018-03-29T23:13:29.394Z,23.42
2018-03-29T23:15:58.755Z,23.23
2018-03-29T23:18:27.966Z,21.48
2018-03-29T23:20:56.356Z,22.17
2018-03-29T23:23:24.732Z,24.55
2018-03-29T23:25:53.190Z,26.87
2018-03-29T23:28:21.597Z,26.33
2018-03-29T23:30:50.074Z,23.58
2018-03-29T23:33:18.484Z,23.42
2018-03-29T23:35:46.941Z,24.48
2018-03-29T23:38:15.384Z,24.98
2018-03-29T23:40:44.974Z,24.30
2018-03-29T23:43:14.168Z,25.23
2018-03-29T23:45:42.547Z,23.10
2018-03-29T23:48:10.986Z,21.98
2018-03-29T23:50:39.431Z,20.85
2018-03-29T23:53:07.835Z,22.50
2018-03-29T23:55:36.286Z,23.77
2018-03-29T23:58:18.833Z,22.90
